sensor_id;sensor_type;location;lat;lon;timestamp;P1;durP1;ratioP1;P2;durP2;ratioP2
68633;SDS011;55625;47.072;22.192;2023-03-05T00:01:52;20.15;;;9.32;;
68633;SDS011;55625;47.072;22.192;2023-03-05T00:04:18;14.23;;;11.35;;
68633;SDS011;55625;47.072;22.192;2023-03-05T00:06:45;15.70;;;10.60;;
68633;SDS011;55625;47.072;22.192;2023-03-05T00:09:11;10.52;;;9.18;;
68633;SDS011;55625;47.072;22.192;2023-03-05T00:11:37;21.80;;;11.15;;
68633;SDS011;55625;47.072;22.192;2023-03-05T00:14:03;16.00;;;9.60;;
68633;SDS011;55625;47.072;22.192;2023-03-05T00:16:30;14.05;;;5.72;;
68633;SDS011;55625;47.072;22.192;2023-03-05T00:18:57;10.87;;;9.47;;
68633;SDS011;55625;47.072;22.192;2023-03-05T00:21:29;20.70;;;11.15;;
68633;SDS011;55625;47.072;22.192;2023-03-05T00:23:57;17.52;;;9.70;;
68633;SDS011;55625;47.072;22.192;2023-03-05T00:26:25;18.35;;;5.05;;
68633;SDS011;55625;47.072;22.192;2023-03-05T00:28:53;12.85;;;7.15;;
68633;SDS011;55625;47.072;22.192;2023-03-05T00:31:22;8.67;;;4.70;;
68633;SDS011;55625;47.072;22.192;2023-03-05T00:33:54;8.73;;;5.32;;
68633;SDS011;55625;47.072;22.192;2023-03-05T00:36:23;10.00;;;5.80;;
68633;SDS011;55625;47.072;22.192;2023-03-05T00:38:49;8.90;;;7.05;;
68633;SDS011;55625;47.072;22.192;2023-03-05T00:41:15;8.98;;;6.47;;
68633;SDS011;55625;47.072;22.192;2023-03-05T00:43:41;8.27;;;4.97;;
68633;SDS011;55625;47.072;22.192;2023-03-05T00:46:07;10.18;;;6.45;;
68633;SDS011;55625;47.072;22.192;2023-03-05T00:48:33;6.70;;;5.68;;
68633;SDS011;55625;47.072;22.192;2023-03-05T00:50:59;6.03;;;4.25;;
68633;SDS011;55625;47.072;22.192;2023-03-05T00:53:25;5.57;;;4.80;;
68633;SDS011;55625;47.072;22.192;2023-03-05T00:55:51;4.22;;;3.83;;
68633;SDS011;55625;47.072;22.192;2023-03-05T00:58:17;7.78;;;4.82;;
68633;SDS011;55625;47.072;22.192;2023-03-05T01:00:43;4.85;;;3.65;;
68633;SDS011;55625;47.072;22.192;2023-03-05T01:03:09;11.27;;;5.97;;
68633;SDS011;55625;47.072;22.192;2023-03-05T01:05:35;15.63;;;7.07;;
68633;SDS011;55625;47.072;22.192;2023-03-05T01:08:01;11.13;;;5.43;;
68633;SDS011;55625;47.072;22.192;2023-03-05T01:10:27;7.53;;;3.67;;
68633;SDS011;55625;47.072;22.192;2023-03-05T01:12:54;7.10;;;3.33;;
68633;SDS011;55625;47.072;22.192;2023-03-05T01:15:20;18.48;;;5.22;;
68633;SDS011;55625;47.072;22.192;2023-03-05T01:17:48;9.02;;;4.20;;
68633;SDS011;55625;47.072;22.192;2023-03-05T01:20:14;11.17;;;6.80;;
68633;SDS011;55625;47.072;22.192;2023-03-05T01:22:41;5.75;;;3.72;;
68633;SDS011;55625;47.072;22.192;2023-03-05T01:25:08;11.70;;;5.55;;
68633;SDS011;55625;47.072;22.192;2023-03-05T01:27:35;4.30;;;3.22;;
68633;SDS011;55625;47.072;22.192;2023-03-05T01:30:02;12.57;;;6.67;;
68633;SDS011;55625;47.072;22.192;2023-03-05T01:32:29;13.75;;;6.80;;
68633;SDS011;55625;47.072;22.192;2023-03-05T01:34:55;7.13;;;4.93;;
68633;SDS011;55625;47.072;22.192;2023-03-05T01:37:20;12.00;;;4.88;;
68633;SDS011;55625;47.072;22.192;2023-03-05T01:39:46;15.43;;;6.30;;
68633;SDS011;55625;47.072;22.192;2023-03-05T01:42:12;13.43;;;6.05;;
68633;SDS011;55625;47.072;22.192;2023-03-05T01:44:38;8.67;;;5.97;;
68633;SDS011;55625;47.072;22.192;2023-03-05T01:47:04;9.55;;;6.50;;
68633;SDS011;55625;47.072;22.192;2023-03-05T01:49:34;9.77;;;6.38;;
68633;SDS011;55625;47.072;22.192;2023-03-05T01:52:14;12.23;;;5.63;;
68633;SDS011;55625;47.072;22.192;2023-03-05T01:54:44;5.33;;;4.00;;
68633;SDS011;55625;47.072;22.192;2023-03-05T01:57:39;7.68;;;4.63;;
68633;SDS011;55625;47.072;22.192;2023-03-05T02:00:13;10.25;;;5.38;;
68633;SDS011;55625;47.072;22.192;2023-03-05T02:02:44;7.15;;;4.20;;
68633;SDS011;55625;47.072;22.192;2023-03-05T02:05:26;12.27;;;7.20;;
68633;SDS011;55625;47.072;22.192;2023-03-05T02:07:58;4.90;;;4.27;;
68633;SDS011;55625;47.072;22.192;2023-03-05T02:10:28;12.38;;;4.60;;
68633;SDS011;55625;47.072;22.192;2023-03-05T02:13:02;8.25;;;4.30;;
68633;SDS011;55625;47.072;22.192;2023-03-05T02:15:39;5.90;;;3.33;;
68633;SDS011;55625;47.072;22.192;2023-03-05T02:18:06;6.45;;;5.18;;
68633;SDS011;55625;47.072;22.192;2023-03-05T02:20:44;7.77;;;4.63;;
68633;SDS011;55625;47.072;22.192;2023-03-05T02:23:32;10.13;;;6.68;;
68633;SDS011;55625;47.072;22.192;2023-03-05T02:26:01;7.15;;;5.50;;
68633;SDS011;55625;47.072;22.192;2023-03-05T02:28:38;10.85;;;6.05;;
68633;SDS011;55625;47.072;22.192;2023-03-05T02:31:17;6.60;;;5.50;;
68633;SDS011;55625;47.072;22.192;2023-03-05T02:33:46;3.10;;;2.80;;
68633;SDS011;55625;47.072;22.192;2023-03-05T02:36:14;6.28;;;3.80;;
68633;SDS011;55625;47.072;22.192;2023-03-05T02:38:40;4.60;;;3.95;;
68633;SDS011;55625;47.072;22.192;2023-03-05T02:41:07;10.20;;;4.93;;
68633;SDS011;55625;47.072;22.192;2023-03-05T02:43:33;5.78;;;4.45;;
68633;SDS011;55625;47.072;22.192;2023-03-05T02:45:59;11.40;;;5.50;;
68633;SDS011;55625;47.072;22.192;2023-03-05T02:48:25;5.47;;;4.88;;
68633;SDS011;55625;47.072;22.192;2023-03-05T02:50:51;5.25;;;4.75;;
68633;SDS011;55625;47.072;22.192;2023-03-05T02:53:18;9.18;;;4.13;;
68633;SDS011;55625;47.072;22.192;2023-03-05T02:55:47;5.20;;;3.60;;
68633;SDS011;55625;47.072;22.192;2023-03-05T02:58:13;4.63;;;3.63;;
68633;SDS011;55625;47.072;22.192;2023-03-05T03:00:40;8.80;;;5.00;;
68633;SDS011;55625;47.072;22.192;2023-03-05T03:03:06;10.50;;;5.40;;
68633;SDS011;55625;47.072;22.192;2023-03-05T03:05:33;6.27;;;4.23;;
68633;SDS011;55625;47.072;22.192;2023-03-05T03:08:00;7.47;;;4.95;;
68633;SDS011;55625;47.072;22.192;2023-03-05T03:10:27;8.20;;;6.40;;
68633;SDS011;55625;47.072;22.192;2023-03-05T03:12:53;7.15;;;5.50;;
68633;SDS011;55625;47.072;22.192;2023-03-05T03:15:19;12.10;;;4.03;;
68633;SDS011;55625;47.072;22.192;2023-03-05T03:17:45;8.27;;;7.27;;
68633;SDS011;55625;47.072;22.192;2023-03-05T03:20:12;9.82;;;5.63;;
68633;SDS011;55625;47.072;22.192;2023-03-05T03:22:40;20.77;;;6.60;;
68633;SDS011;55625;47.072;22.192;2023-03-05T03:25:09;13.80;;;4.32;;
68633;SDS011;55625;47.072;22.192;2023-03-05T03:27:40;13.90;;;5.25;;
68633;SDS011;55625;47.072;22.192;2023-03-05T03:30:06;6.97;;;4.40;;
68633;SDS011;55625;47.072;22.192;2023-03-05T03:32:34;5.03;;;4.32;;
68633;SDS011;55625;47.072;22.192;2023-03-05T03:35:00;13.43;;;6.57;;
68633;SDS011;55625;47.072;22.192;2023-03-05T03:37:27;4.07;;;3.70;;
68633;SDS011;55625;47.072;22.192;2023-03-05T03:39:53;11.25;;;4.18;;
68633;SDS011;55625;47.072;22.192;2023-03-05T03:42:19;6.23;;;5.57;;
68633;SDS011;55625;47.072;22.192;2023-03-05T03:44:46;10.18;;;5.22;;
68633;SDS011;55625;47.072;22.192;2023-03-05T03:47:12;9.63;;;4.47;;
68633;SDS011;55625;47.072;22.192;2023-03-05T03:49:39;6.82;;;4.00;;
68633;SDS011;55625;47.072;22.192;2023-03-05T03:52:05;9.47;;;4.97;;
68633;SDS011;55625;47.072;22.192;2023-03-05T03:54:31;11.85;;;8.20;;
68633;SDS011;55625;47.072;22.192;2023-03-05T03:56:57;21.75;;;9.77;;
68633;SDS011;55625;47.072;22.192;2023-03-05T03:59:23;14.20;;;9.80;;
68633;SDS011;55625;47.072;22.192;2023-03-05T04:01:49;9.40;;;8.17;;
68633;SDS011;55625;47.072;22.192;2023-03-05T04:04:15;9.25;;;4.93;;
68633;SDS011;55625;47.072;22.192;2023-03-05T04:06:41;19.13;;;7.15;;
68633;SDS011;55625;47.072;22.192;2023-03-05T04:09:07;11.13;;;6.30;;
68633;SDS011;55625;47.072;22.192;2023-03-05T04:11:36;15.03;;;7.73;;
68633;SDS011;55625;47.072;22.192;2023-03-05T04:14:02;8.73;;;6.97;;
68633;SDS011;55625;47.072;22.192;2023-03-05T04:16:29;7.05;;;5.30;;
68633;SDS011;55625;47.072;22.192;2023-03-05T04:18:55;7.05;;;6.05;;
68633;SDS011;55625;47.072;22.192;2023-03-05T04:21:21;6.28;;;4.65;;
68633;SDS011;55625;47.072;22.192;2023-03-05T04:23:47;8.90;;;4.37;;
68633;SDS011;55625;47.072;22.192;2023-03-05T04:26:13;5.18;;;4.35;;
68633;SDS011;55625;47.072;22.192;2023-03-05T04:28:39;4.60;;;2.95;;
68633;SDS011;55625;47.072;22.192;2023-03-05T04:31:04;5.67;;;4.60;;
68633;SDS011;55625;47.072;22.192;2023-03-05T04:33:30;6.10;;;4.10;;
68633;SDS011;55625;47.072;22.192;2023-03-05T04:35:57;8.75;;;4.40;;
68633;SDS011;55625;47.072;22.192;2023-03-05T04:38:23;5.50;;;3.97;;
68633;SDS011;55625;47.072;22.192;2023-03-05T04:40:49;4.65;;;2.63;;
68633;SDS011;55625;47.072;22.192;2023-03-05T04:43:15;5.45;;;4.90;;
68633;SDS011;55625;47.072;22.192;2023-03-05T04:45:42;5.70;;;4.73;;
68633;SDS011;55625;47.072;22.192;2023-03-05T04:48:08;6.38;;;4.38;;
68633;SDS011;55625;47.072;22.192;2023-03-05T04:50:36;5.35;;;4.35;;
68633;SDS011;55625;47.072;22.192;2023-03-05T04:53:02;12.50;;;6.47;;
68633;SDS011;55625;47.072;22.192;2023-03-05T04:55:28;6.30;;;4.47;;
68633;SDS011;55625;47.072;22.192;2023-03-05T04:57:54;10.07;;;5.47;;
68633;SDS011;55625;47.072;22.192;2023-03-05T05:00:21;11.85;;;3.83;;
68633;SDS011;55625;47.072;22.192;2023-03-05T05:02:48;12.15;;;5.43;;
68633;SDS011;55625;47.072;22.192;2023-03-05T05:05:16;5.80;;;3.50;;
68633;SDS011;55625;47.072;22.192;2023-03-05T05:07:48;7.88;;;6.25;;
68633;SDS011;55625;47.072;22.192;2023-03-05T05:10:17;6.43;;;3.87;;
68633;SDS011;55625;47.072;22.192;2023-03-05T05:12:43;11.45;;;6.15;;
68633;SDS011;55625;47.072;22.192;2023-03-05T05:15:10;6.72;;;4.57;;
68633;SDS011;55625;47.072;22.192;2023-03-05T05:17:37;6.30;;;3.60;;
68633;SDS011;55625;47.072;22.192;2023-03-05T05:20:04;7.20;;;5.30;;
68633;SDS011;55625;47.072;22.192;2023-03-05T05:22:31;7.60;;;4.25;;
68633;SDS011;55625;47.072;22.192;2023-03-05T05:24:58;11.70;;;6.18;;
68633;SDS011;55625;47.072;22.192;2023-03-05T05:27:24;10.98;;;6.55;;
68633;SDS011;55625;47.072;22.192;2023-03-05T05:29:50;8.93;;;4.20;;
68633;SDS011;55625;47.072;22.192;2023-03-05T05:32:17;18.88;;;7.68;;
68633;SDS011;55625;47.072;22.192;2023-03-05T05:34:44;11.88;;;5.25;;
68633;SDS011;55625;47.072;22.192;2023-03-05T05:37:10;6.32;;;5.15;;
68633;SDS011;55625;47.072;22.192;2023-03-05T05:39:36;5.33;;;4.10;;
68633;SDS011;55625;47.072;22.192;2023-03-05T05:42:02;16.80;;;6.72;;
68633;SDS011;55625;47.072;22.192;2023-03-05T05:44:29;9.90;;;6.13;;
68633;SDS011;55625;47.072;22.192;2023-03-05T05:46:55;12.85;;;5.55;;
68633;SDS011;55625;47.072;22.192;2023-03-05T05:49:21;8.38;;;6.25;;
68633;SDS011;55625;47.072;22.192;2023-03-05T05:51:46;7.83;;;4.10;;
68633;SDS011;55625;47.072;22.192;2023-03-05T05:54:13;7.13;;;5.88;;
68633;SDS011;55625;47.072;22.192;2023-03-05T05:56:40;7.82;;;5.13;;
68633;SDS011;55625;47.072;22.192;2023-03-05T05:59:07;12.60;;;5.30;;
68633;SDS011;55625;47.072;22.192;2023-03-05T06:01:34;9.57;;;5.30;;
68633;SDS011;55625;47.072;22.192;2023-03-05T06:04:00;4.85;;;4.18;;
68633;SDS011;55625;47.072;22.192;2023-03-05T06:06:27;8.23;;;6.72;;
68633;SDS011;55625;47.072;22.192;2023-03-05T06:08:54;10.02;;;6.32;;
68633;SDS011;55625;47.072;22.192;2023-03-05T06:11:21;14.47;;;5.20;;
68633;SDS011;55625;47.072;22.192;2023-03-05T06:13:47;4.75;;;2.67;;
68633;SDS011;55625;47.072;22.192;2023-03-05T06:16:15;7.63;;;6.22;;
68633;SDS011;55625;47.072;22.192;2023-03-05T06:18:44;8.90;;;4.97;;
68633;SDS011;55625;47.072;22.192;2023-03-05T06:21:11;9.15;;;6.70;;
68633;SDS011;55625;47.072;22.192;2023-03-05T06:23:40;41.13;;;16.50;;
68633;SDS011;55625;47.072;22.192;2023-03-05T06:26:09;30.17;;;19.33;;
68633;SDS011;55625;47.072;22.192;2023-03-05T06:28:37;31.70;;;17.38;;
68633;SDS011;55625;47.072;22.192;2023-03-05T06:31:04;35.55;;;18.65;;
68633;SDS011;55625;47.072;22.192;2023-03-05T06:33:42;22.20;;;10.63;;
68633;SDS011;55625;47.072;22.192;2023-03-05T06:36:10;23.40;;;9.27;;
68633;SDS011;55625;47.072;22.192;2023-03-05T06:38:39;17.55;;;10.27;;
68633;SDS011;55625;47.072;22.192;2023-03-05T06:41:07;8.77;;;5.00;;
68633;SDS011;55625;47.072;22.192;2023-03-05T06:43:38;17.70;;;8.60;;
68633;SDS011;55625;47.072;22.192;2023-03-05T06:46:07;8.38;;;6.88;;
68633;SDS011;55625;47.072;22.192;2023-03-05T06:48:50;9.37;;;6.97;;
68633;SDS011;55625;47.072;22.192;2023-03-05T06:51:17;7.13;;;4.28;;
68633;SDS011;55625;47.072;22.192;2023-03-05T06:53:48;10.05;;;4.82;;
68633;SDS011;55625;47.072;22.192;2023-03-05T06:56:15;6.75;;;3.53;;
68633;SDS011;55625;47.072;22.192;2023-03-05T06:58:43;3.67;;;2.25;;
68633;SDS011;55625;47.072;22.192;2023-03-05T07:01:11;14.10;;;5.37;;
68633;SDS011;55625;47.072;22.192;2023-03-05T07:03:38;7.03;;;3.75;;
68633;SDS011;55625;47.072;22.192;2023-03-05T07:06:04;5.85;;;4.75;;
68633;SDS011;55625;47.072;22.192;2023-03-05T07:08:33;10.43;;;6.95;;
68633;SDS011;55625;47.072;22.192;2023-03-05T07:11:00;12.77;;;5.57;;
68633;SDS011;55625;47.072;22.192;2023-03-05T07:13:26;10.73;;;7.67;;
68633;SDS011;55625;47.072;22.192;2023-03-05T07:15:52;8.98;;;5.22;;
68633;SDS011;55625;47.072;22.192;2023-03-05T07:18:19;22.33;;;7.70;;
68633;SDS011;55625;47.072;22.192;2023-03-05T07:20:45;7.10;;;5.57;;
68633;SDS011;55625;47.072;22.192;2023-03-05T07:23:11;6.22;;;4.43;;
68633;SDS011;55625;47.072;22.192;2023-03-05T07:25:37;6.23;;;5.63;;
68633;SDS011;55625;47.072;22.192;2023-03-05T07:28:04;14.00;;;6.05;;
68633;SDS011;55625;47.072;22.192;2023-03-05T07:30:31;11.10;;;4.45;;
68633;SDS011;55625;47.072;22.192;2023-03-05T07:32:58;10.50;;;6.03;;
68633;SDS011;55625;47.072;22.192;2023-03-05T07:35:24;12.97;;;7.77;;
68633;SDS011;55625;47.072;22.192;2023-03-05T07:37:50;8.77;;;6.53;;
68633;SDS011;55625;47.072;22.192;2023-03-05T07:40:19;11.27;;;8.20;;
68633;SDS011;55625;47.072;22.192;2023-03-05T07:42:45;9.45;;;5.97;;
68633;SDS011;55625;47.072;22.192;2023-03-05T07:45:11;7.30;;;5.05;;
68633;SDS011;55625;47.072;22.192;2023-03-05T07:47:37;8.33;;;5.27;;
68633;SDS011;55625;47.072;22.192;2023-03-05T07:50:04;8.10;;;4.32;;
68633;SDS011;55625;47.072;22.192;2023-03-05T07:52:30;10.18;;;1.98;;
68633;SDS011;55625;47.072;22.192;2023-03-05T07:54:56;10.37;;;6.03;;
68633;SDS011;55625;47.072;22.192;2023-03-05T07:57:22;7.00;;;2.83;;
68633;SDS011;55625;47.072;22.192;2023-03-05T07:59:48;4.78;;;2.33;;
68633;SDS011;55625;47.072;22.192;2023-03-05T08:02:14;4.63;;;3.23;;
68633;SDS011;55625;47.072;22.192;2023-03-05T08:04:40;15.13;;;6.78;;
68633;SDS011;55625;47.072;22.192;2023-03-05T08:07:07;10.15;;;2.70;;
68633;SDS011;55625;47.072;22.192;2023-03-05T08:09:33;7.32;;;4.75;;
68633;SDS011;55625;47.072;22.192;2023-03-05T08:11:59;4.72;;;3.17;;
68633;SDS011;55625;47.072;22.192;2023-03-05T08:14:25;9.97;;;4.83;;
68633;SDS011;55625;47.072;22.192;2023-03-05T08:16:51;3.80;;;3.15;;
68633;SDS011;55625;47.072;22.192;2023-03-05T08:19:19;4.97;;;3.42;;
68633;SDS011;55625;47.072;22.192;2023-03-05T08:21:45;4.13;;;2.40;;
68633;SDS011;55625;47.072;22.192;2023-03-05T08:24:11;6.35;;;3.33;;
68633;SDS011;55625;47.072;22.192;2023-03-05T08:26:39;4.25;;;3.20;;
68633;SDS011;55625;47.072;22.192;2023-03-05T08:29:06;3.55;;;2.35;;
68633;SDS011;55625;47.072;22.192;2023-03-05T08:31:33;2.90;;;1.73;;
68633;SDS011;55625;47.072;22.192;2023-03-05T08:34:00;6.47;;;3.63;;
68633;SDS011;55625;47.072;22.192;2023-03-05T08:36:28;3.90;;;2.00;;
68633;SDS011;55625;47.072;22.192;2023-03-05T08:38:54;6.07;;;3.63;;
68633;SDS011;55625;47.072;22.192;2023-03-05T08:41:20;3.55;;;2.65;;
68633;SDS011;55625;47.072;22.192;2023-03-05T08:43:46;3.50;;;2.28;;
68633;SDS011;55625;47.072;22.192;2023-03-05T08:46:13;4.13;;;3.20;;
68633;SDS011;55625;47.072;22.192;2023-03-05T08:48:40;5.13;;;1.80;;
68633;SDS011;55625;47.072;22.192;2023-03-05T08:51:11;2.35;;;1.25;;
68633;SDS011;55625;47.072;22.192;2023-03-05T08:53:39;4.30;;;3.40;;
68633;SDS011;55625;47.072;22.192;2023-03-05T08:56:07;4.03;;;2.38;;
68633;SDS011;55625;47.072;22.192;2023-03-05T08:58:34;2.80;;;1.50;;
68633;SDS011;55625;47.072;22.192;2023-03-05T09:01:00;5.50;;;2.90;;
68633;SDS011;55625;47.072;22.192;2023-03-05T09:03:25;5.88;;;2.97;;
68633;SDS011;55625;47.072;22.192;2023-03-05T09:05:52;5.50;;;3.22;;
68633;SDS011;55625;47.072;22.192;2023-03-05T09:08:18;4.33;;;2.00;;
68633;SDS011;55625;47.072;22.192;2023-03-05T09:10:45;5.05;;;3.53;;
68633;SDS011;55625;47.072;22.192;2023-03-05T09:13:11;3.08;;;2.33;;
68633;SDS011;55625;47.072;22.192;2023-03-05T09:15:37;3.83;;;2.03;;
68633;SDS011;55625;47.072;22.192;2023-03-05T09:18:03;3.47;;;2.17;;
68633;SDS011;55625;47.072;22.192;2023-03-05T09:20:30;4.97;;;1.60;;
68633;SDS011;55625;47.072;22.192;2023-03-05T09:22:57;3.67;;;2.53;;
68633;SDS011;55625;47.072;22.192;2023-03-05T09:25:23;5.18;;;1.90;;
68633;SDS011;55625;47.072;22.192;2023-03-05T09:27:48;3.57;;;1.43;;
68633;SDS011;55625;47.072;22.192;2023-03-05T09:30:14;2.72;;;1.88;;
68633;SDS011;55625;47.072;22.192;2023-03-05T09:32:41;5.55;;;2.33;;
68633;SDS011;55625;47.072;22.192;2023-03-05T09:35:07;8.40;;;3.95;;
68633;SDS011;55625;47.072;22.192;2023-03-05T09:37:33;5.07;;;3.13;;
68633;SDS011;55625;47.072;22.192;2023-03-05T09:39:59;7.55;;;3.20;;
68633;SDS011;55625;47.072;22.192;2023-03-05T09:48:39;3.45;;;2.47;;
68633;SDS011;55625;47.072;22.192;2023-03-05T09:51:04;5.00;;;4.10;;
68633;SDS011;55625;47.072;22.192;2023-03-05T09:53:37;6.50;;;2.80;;
68633;SDS011;55625;47.072;22.192;2023-03-05T09:56:28;3.88;;;2.03;;
68633;SDS011;55625;47.072;22.192;2023-03-05T09:59:03;5.30;;;2.42;;
68633;SDS011;55625;47.072;22.192;2023-03-05T10:01:41;6.10;;;2.83;;
68633;SDS011;55625;47.072;22.192;2023-03-05T10:04:10;5.33;;;3.63;;
68633;SDS011;55625;47.072;22.192;2023-03-05T10:09:58;4.03;;;2.53;;
68633;SDS011;55625;47.072;22.192;2023-03-05T10:15:18;5.53;;;2.88;;
68633;SDS011;55625;47.072;22.192;2023-03-05T10:26:29;3.55;;;2.33;;
68633;SDS011;55625;47.072;22.192;2023-03-05T10:29:39;3.05;;;1.15;;
68633;SDS011;55625;47.072;22.192;2023-03-05T10:44:15;2.42;;;1.38;;
68633;SDS011;55625;47.072;22.192;2023-03-05T10:46:58;11.83;;;2.83;;
68633;SDS011;55625;47.072;22.192;2023-03-05T10:49:34;19.73;;;1.83;;
68633;SDS011;55625;47.072;22.192;2023-03-05T10:52:09;3.53;;;1.73;;
68633;SDS011;55625;47.072;22.192;2023-03-05T10:55:01;4.50;;;2.55;;
68633;SDS011;55625;47.072;22.192;2023-03-05T10:57:39;4.40;;;2.33;;
68633;SDS011;55625;47.072;22.192;2023-03-05T11:00:09;4.53;;;2.73;;
68633;SDS011;55625;47.072;22.192;2023-03-05T11:08:25;3.95;;;2.17;;
68633;SDS011;55625;47.072;22.192;2023-03-05T11:13:40;7.37;;;2.53;;
68633;SDS011;55625;47.072;22.192;2023-03-05T11:16:21;3.47;;;1.95;;
68633;SDS011;55625;47.072;22.192;2023-03-05T11:21:38;2.75;;;1.60;;
68633;SDS011;55625;47.072;22.192;2023-03-05T11:24:12;8.98;;;1.55;;
68633;SDS011;55625;47.072;22.192;2023-03-05T11:26:46;4.40;;;1.50;;
68633;SDS011;55625;47.072;22.192;2023-03-05T11:29:28;2.35;;;1.15;;
68633;SDS011;55625;47.072;22.192;2023-03-05T11:32:13;4.32;;;2.20;;
68633;SDS011;55625;47.072;22.192;2023-03-05T11:34:45;2.38;;;1.55;;
68633;SDS011;55625;47.072;22.192;2023-03-05T11:37:21;3.38;;;2.42;;
68633;SDS011;55625;47.072;22.192;2023-03-05T11:42:34;2.97;;;2.60;;
68633;SDS011;55625;47.072;22.192;2023-03-05T11:45:04;6.25;;;3.28;;
68633;SDS011;55625;47.072;22.192;2023-03-05T11:50:04;5.40;;;4.07;;
68633;SDS011;55625;47.072;22.192;2023-03-05T11:52:45;10.17;;;2.13;;
68633;SDS011;55625;47.072;22.192;2023-03-05T11:55:26;3.58;;;1.77;;
68633;SDS011;55625;47.072;22.192;2023-03-05T12:01:06;3.63;;;2.65;;
68633;SDS011;55625;47.072;22.192;2023-03-05T12:03:46;8.27;;;2.30;;
68633;SDS011;55625;47.072;22.192;2023-03-05T12:09:23;3.30;;;2.63;;
68633;SDS011;55625;47.072;22.192;2023-03-05T12:12:56;4.47;;;2.45;;
68633;SDS011;55625;47.072;22.192;2023-03-05T12:18:33;6.43;;;2.83;;
68633;SDS011;55625;47.072;22.192;2023-03-05T12:23:43;2.92;;;0.90;;
68633;SDS011;55625;47.072;22.192;2023-03-05T12:26:11;2.70;;;1.50;;
68633;SDS011;55625;47.072;22.192;2023-03-05T12:47:34;4.75;;;2.30;;
68633;SDS011;55625;47.072;22.192;2023-03-05T12:50:01;2.45;;;1.42;;
68633;SDS011;55625;47.072;22.192;2023-03-05T12:52:30;2.92;;;1.98;;
68633;SDS011;55625;47.072;22.192;2023-03-05T12:57:44;5.47;;;3.60;;
68633;SDS011;55625;47.072;22.192;2023-03-05T13:00:18;2.83;;;2.38;;
68633;SDS011;55625;47.072;22.192;2023-03-05T13:02:57;4.70;;;3.15;;
68633;SDS011;55625;47.072;22.192;2023-03-05T13:05:29;7.13;;;2.47;;
68633;SDS011;55625;47.072;22.192;2023-03-05T13:08:14;4.40;;;2.10;;
68633;SDS011;55625;47.072;22.192;2023-03-05T13:10:58;6.65;;;3.53;;
68633;SDS011;55625;47.072;22.192;2023-03-05T13:13:37;5.15;;;2.28;;
68633;SDS011;55625;47.072;22.192;2023-03-05T13:16:18;2.55;;;1.67;;
68633;SDS011;55625;47.072;22.192;2023-03-05T13:18:50;3.90;;;2.63;;
68633;SDS011;55625;47.072;22.192;2023-03-05T13:21:20;6.60;;;3.10;;
68633;SDS011;55625;47.072;22.192;2023-03-05T13:23:55;4.53;;;2.90;;
68633;SDS011;55625;47.072;22.192;2023-03-05T13:26:37;5.07;;;2.53;;
68633;SDS011;55625;47.072;22.192;2023-03-05T13:29:10;4.63;;;2.08;;
68633;SDS011;55625;47.072;22.192;2023-03-05T13:31:40;2.13;;;1.13;;
68633;SDS011;55625;47.072;22.192;2023-03-05T13:37:04;7.13;;;1.83;;
68633;SDS011;55625;47.072;22.192;2023-03-05T13:39:49;4.30;;;2.22;;
68633;SDS011;55625;47.072;22.192;2023-03-05T13:45:38;3.70;;;2.15;;
68633;SDS011;55625;47.072;22.192;2023-03-05T13:47:53;2.90;;;1.47;;
68633;SDS011;55625;47.072;22.192;2023-03-05T13:50:37;3.08;;;2.28;;
68633;SDS011;55625;47.072;22.192;2023-03-05T13:56:36;6.63;;;1.90;;
68633;SDS011;55625;47.072;22.192;2023-03-05T13:58:52;6.28;;;2.60;;
68633;SDS011;55625;47.072;22.192;2023-03-05T14:04:06;3.13;;;1.90;;
68633;SDS011;55625;47.072;22.192;2023-03-05T14:06:51;6.35;;;2.90;;
68633;SDS011;55625;47.072;22.192;2023-03-05T14:09:31;2.42;;;1.73;;
68633;SDS011;55625;47.072;22.192;2023-03-05T14:14:58;4.53;;;2.87;;
68633;SDS011;55625;47.072;22.192;2023-03-05T14:22:38;3.88;;;1.85;;
68633;SDS011;55625;47.072;22.192;2023-03-05T14:25:29;3.88;;;2.30;;
68633;SDS011;55625;47.072;22.192;2023-03-05T14:30:44;7.82;;;2.72;;
68633;SDS011;55625;47.072;22.192;2023-03-05T14:33:12;2.65;;;1.40;;
68633;SDS011;55625;47.072;22.192;2023-03-05T14:35:47;4.13;;;2.20;;
68633;SDS011;55625;47.072;22.192;2023-03-05T14:38:18;4.47;;;2.67;;
68633;SDS011;55625;47.072;22.192;2023-03-05T14:40:50;5.30;;;2.83;;
68633;SDS011;55625;47.072;22.192;2023-03-05T14:43:16;2.08;;;1.20;;
68633;SDS011;55625;47.072;22.192;2023-03-05T14:45:42;3.80;;;2.55;;
68633;SDS011;55625;47.072;22.192;2023-03-05T14:48:09;8.73;;;2.33;;
68633;SDS011;55625;47.072;22.192;2023-03-05T14:50:48;7.80;;;1.90;;
68633;SDS011;55625;47.072;22.192;2023-03-05T14:53:23;3.92;;;1.83;;
68633;SDS011;55625;47.072;22.192;2023-03-05T14:55:52;5.72;;;2.50;;
68633;SDS011;55625;47.072;22.192;2023-03-05T14:58:24;2.40;;;1.30;;
68633;SDS011;55625;47.072;22.192;2023-03-05T15:00:56;3.85;;;1.02;;
68633;SDS011;55625;47.072;22.192;2023-03-05T15:03:23;2.27;;;1.87;;
68633;SDS011;55625;47.072;22.192;2023-03-05T15:05:51;3.42;;;2.00;;
68633;SDS011;55625;47.072;22.192;2023-03-05T15:08:27;5.93;;;2.63;;
68633;SDS011;55625;47.072;22.192;2023-03-05T15:10:56;2.20;;;1.52;;
68633;SDS011;55625;47.072;22.192;2023-03-05T15:13:24;3.17;;;2.60;;
68633;SDS011;55625;47.072;22.192;2023-03-05T15:15:50;2.43;;;1.27;;
68633;SDS011;55625;47.072;22.192;2023-03-05T15:18:18;5.32;;;1.98;;
68633;SDS011;55625;47.072;22.192;2023-03-05T15:20:46;4.20;;;2.00;;
68633;SDS011;55625;47.072;22.192;2023-03-05T15:23:16;4.18;;;1.77;;
68633;SDS011;55625;47.072;22.192;2023-03-05T15:25:41;3.20;;;2.08;;
68633;SDS011;55625;47.072;22.192;2023-03-05T15:28:07;4.70;;;0.93;;
68633;SDS011;55625;47.072;22.192;2023-03-05T15:30:35;4.10;;;1.67;;
68633;SDS011;55625;47.072;22.192;2023-03-05T15:33:08;2.42;;;1.55;;
68633;SDS011;55625;47.072;22.192;2023-03-05T15:35:36;3.03;;;1.83;;
68633;SDS011;55625;47.072;22.192;2023-03-05T15:38:02;3.13;;;1.43;;
68633;SDS011;55625;47.072;22.192;2023-03-05T15:40:28;1.50;;;0.82;;
68633;SDS011;55625;47.072;22.192;2023-03-05T15:42:56;3.55;;;1.77;;
68633;SDS011;55625;47.072;22.192;2023-03-05T15:45:23;4.28;;;1.48;;
68633;SDS011;55625;47.072;22.192;2023-03-05T15:47:50;2.95;;;1.80;;
68633;SDS011;55625;47.072;22.192;2023-03-05T15:50:17;2.43;;;1.03;;
68633;SDS011;55625;47.072;22.192;2023-03-05T15:52:45;2.47;;;1.85;;
68633;SDS011;55625;47.072;22.192;2023-03-05T15:55:11;3.25;;;2.55;;
68633;SDS011;55625;47.072;22.192;2023-03-05T15:57:41;5.60;;;2.33;;
68633;SDS011;55625;47.072;22.192;2023-03-05T16:00:08;3.85;;;3.05;;
68633;SDS011;55625;47.072;22.192;2023-03-05T16:02:36;4.87;;;1.50;;
68633;SDS011;55625;47.072;22.192;2023-03-05T16:05:02;4.68;;;2.63;;
68633;SDS011;55625;47.072;22.192;2023-03-05T16:07:29;4.82;;;1.58;;
68633;SDS011;55625;47.072;22.192;2023-03-05T16:09:57;6.88;;;2.58;;
68633;SDS011;55625;47.072;22.192;2023-03-05T16:12:24;3.80;;;1.87;;
68633;SDS011;55625;47.072;22.192;2023-03-05T16:14:55;7.05;;;2.90;;
68633;SDS011;55625;47.072;22.192;2023-03-05T16:17:21;1.65;;;0.93;;
68633;SDS011;55625;47.072;22.192;2023-03-05T16:19:49;1.92;;;1.08;;
68633;SDS011;55625;47.072;22.192;2023-03-05T16:22:19;3.35;;;2.08;;
68633;SDS011;55625;47.072;22.192;2023-03-05T16:24:45;6.27;;;2.63;;
68633;SDS011;55625;47.072;22.192;2023-03-05T16:27:11;1.90;;;1.35;;
68633;SDS011;55625;47.072;22.192;2023-03-05T16:29:37;4.25;;;2.13;;